Time;durP1;ratioP1;P1;durP2;ratioP2;P2;SDS_P1;SDS_P2;PMS_P1;PMS_P2;Temp;Humidity;BMP_temperature;BMP_pressure;BME280_temperature;BME280_humidity;BME280_pressure;Samples;Min_cycle;Max_cycle;Signal;HPM_P1;HPM_P2
2021/12/19 00:02:01;;;;;;;;;;;17.40;99.90;;;;;;5015648;28;1902;-54
2021/12/19 00:09:38;;;;;;;;;;;17.30;99.90;;;;;;5017671;28;968;-54
2021/12/19 00:12:06;;;;;;;;;;;17.20;99.90;;;;;;5016574;28;848;-54
2021/12/19 00:14:32;;;;;;;;;;;17.10;99.90;;;;;;5016191;28;890;-54
2021/12/19 00:16:58;;;;;;;;;;;17.00;99.90;;;;;;5035766;28;886;-54
2021/12/19 00:19:24;;;;;;;;;;;17.00;99.90;;;;;;5035606;28;948;-54
2021/12/19 00:21:50;;;;;;;;;;;17.00;99.90;;;;;;5024299;28;1910;-54
2021/12/19 00:24:18;;;;;;;;;;;17.00;99.90;;;;;;5017571;28;817;-54
2021/12/19 00:26:45;;;;;;;;;;;16.90;99.90;;;;;;5017777;28;840;-56
2021/12/19 00:29:12;;;;;;;;;;;16.90;99.90;;;;;;5016631;28;1648;-57
2021/12/19 00:31:38;;;;;;;;;;;16.90;99.90;;;;;;5017093;28;889;-57
2021/12/19 00:34:05;;;;;;;;;;;16.90;99.90;;;;;;5017173;28;1004;-57
2021/12/19 00:36:31;;;;;;;;;;;16.80;99.90;;;;;;5017063;28;867;-57
2021/12/19 00:38:59;;;;;;;;;;;16.80;99.90;;;;;;5017600;28;850;-57
2021/12/19 00:41:26;;;;;;;;;;;16.80;99.90;;;;;;5017164;28;1910;-57
2021/12/19 00:43:55;;;;;;;;;;;16.70;99.90;;;;;;5017336;28;948;-57
2021/12/19 00:46:24;;;;;;;;;;;16.70;99.90;;;;;;5017488;28;833;-57
2021/12/19 00:48:52;;;;;;;;;;;16.70;99.90;;;;;;5016831;28;1158;-57
2021/12/19 00:51:22;;;;;;;;;;;16.70;99.90;;;;;;5015345;28;913;-57
2021/12/19 00:53:49;;;;;;;;;;;16.70;99.90;;;;;;5016915;28;895;-57
2021/12/19 00:56:15;;;;;;;;;;;16.60;99.90;;;;;;4998989;28;1595;-57
2021/12/19 00:58:42;;;;;;;;;;;16.60;99.90;;;;;;5016524;28;793;-57
2021/12/19 01:01:09;;;;;;;;;;;16.60;99.90;;;;;;5017983;28;1914;-57
2021/12/19 01:03:35;;;;;;;;;;;16.50;99.90;;;;;;5017159;28;901;-57
2021/12/19 01:06:02;;;;;;;;;;;16.50;99.90;;;;;;5016610;28;932;-57
2021/12/19 01:08:29;;;;;;;;;;;16.50;99.90;;;;;;5016746;28;856;-57
2021/12/19 01:10:56;;;;;;;;;;;16.40;99.90;;;;;;5016927;28;864;-57
2021/12/19 01:13:23;;;;;;;;;;;16.40;99.90;;;;;;5017134;28;865;-57
2021/12/19 01:15:51;;;;;;;;;;;16.40;99.90;;;;;;5020999;28;891;-57
2021/12/19 01:18:17;;;;;;;;;;;16.40;99.90;;;;;;5021024;28;1015;-57
2021/12/19 01:20:43;;;;;;;;;;;16.40;99.90;;;;;;5020688;28;1906;-57
2021/12/19 01:23:11;;;;;;;;;;;16.30;99.90;;;;;;5020544;28;1042;-57
2021/12/19 01:25:38;;;;;;;;;;;16.30;99.90;;;;;;5021050;28;1010;-57
2021/12/19 01:28:04;;;;;;;;;;;16.30;99.90;;;;;;5020756;28;876;-56
2021/12/19 01:30:31;;;;;;;;;;;16.30;99.90;;;;;;5020862;28;912;-57
2021/12/19 01:32:58;;;;;;;;;;;16.30;99.90;;;;;;5019450;28;979;-57
2021/12/19 01:35:25;;;;;;;;;;;16.20;99.90;;;;;;5020620;28;897;-57
2021/12/19 01:37:52;;;;;;;;;;;16.20;99.90;;;;;;5020325;28;968;-57
2021/12/19 01:40:19;;;;;;;;;;;16.20;99.90;;;;;;5019199;28;990;-57
2021/12/19 01:42:46;;;;;;;;;;;16.20;99.90;;;;;;5020427;28;1902;-57
2021/12/19 01:45:14;;;;;;;;;;;16.10;99.90;;;;;;5020752;28;858;-57
2021/12/19 01:47:40;;;;;;;;;;;16.10;99.90;;;;;;5020580;28;790;-57
2021/12/19 01:50:07;;;;;;;;;;;16.00;99.90;;;;;;5020445;28;868;-56
2021/12/19 01:52:33;;;;;;;;;;;16.00;99.90;;;;;;5020068;28;986;-57
2021/12/19 01:55:00;;;;;;;;;;;16.00;99.90;;;;;;5018338;28;1804;-54
2021/12/19 01:57:26;;;;;;;;;;;15.90;99.90;;;;;;5025190;28;1624;-55
2021/12/19 01:59:53;;;;;;;;;;;16.00;99.90;;;;;;5030807;28;1017;-54
2021/12/19 02:05:23;;;;;;;;;;;16.00;99.90;;;;;;4971496;23;2152;-53
2021/12/19 02:07:50;;;;;;;;;;;15.90;99.90;;;;;;4980020;28;853;-53
2021/12/19 02:10:38;;;;;;;;;;;15.90;99.90;;;;;;4979469;28;920;-53
2021/12/19 02:13:07;;;;;;;;;;;15.90;99.90;;;;;;4980068;28;1208;-56
2021/12/19 02:15:36;;;;;;;;;;;15.90;99.90;;;;;;4979740;28;928;-56
2021/12/19 02:18:10;;;;;;;;;;;15.80;99.90;;;;;;4980133;28;1124;-53
2021/12/19 02:20:42;;;;;;;;;;;15.80;99.90;;;;;;4979918;28;870;-53
2021/12/19 02:23:09;;;;;;;;;;;15.80;99.90;;;;;;4962281;28;1910;-53
2021/12/19 02:25:36;;;;;;;;;;;15.80;99.90;;;;;;4978730;28;874;-53
2021/12/19 02:28:04;;;;;;;;;;;15.80;99.90;;;;;;4979270;28;972;-53
2021/12/19 02:30:30;;;;;;;;;;;15.80;99.90;;;;;;4979704;28;858;-53
2021/12/19 02:32:59;;;;;;;;;;;15.70;99.90;;;;;;4980126;28;861;-55
2021/12/19 02:35:29;;;;;;;;;;;15.70;99.90;;;;;;4978714;28;953;-55
2021/12/19 02:38:27;;;;;;;;;;;15.70;99.90;;;;;;4946159;28;902;-56
2021/12/19 02:48:53;;;;;;;;;;;15.60;99.90;;;;;;4979313;28;916;-56
2021/12/19 02:51:20;;;;;;;;;;;15.60;99.90;;;;;;4978171;28;1262;-55
2021/12/19 02:53:46;;;;;;;;;;;15.60;99.90;;;;;;4978503;28;886;-55
2021/12/19 02:56:12;;;;;;;;;;;15.50;99.90;;;;;;4979466;28;852;-56
2021/12/19 02:58:39;;;;;;;;;;;15.40;99.90;;;;;;4979231;28;945;-56
2021/12/19 03:01:09;;;;;;;;;;;15.40;99.90;;;;;;4978475;28;1960;-56
2021/12/19 03:03:34;;;;;;;;;;;15.50;99.90;;;;;;4982882;28;1158;-55
2021/12/19 03:06:00;;;;;;;;;;;15.50;99.90;;;;;;4997562;28;1210;-53
2021/12/19 03:08:29;;;;;;;;;;;15.50;99.90;;;;;;4998340;28;896;-53
2021/12/19 03:19:10;;;;;;;;;;;15.40;99.90;;;;;;4995657;28;873;-53
2021/12/19 03:21:38;;;;;;;;;;;15.40;99.90;;;;;;4998282;28;1902;-52
2021/12/19 03:24:07;;;;;;;;;;;15.40;99.90;;;;;;4995549;28;988;-52
2021/12/19 03:26:34;;;;;;;;;;;15.40;99.90;;;;;;4995351;28;911;-52
2021/12/19 03:29:00;;;;;;;;;;;15.30;99.90;;;;;;4995701;28;936;-53
2021/12/19 03:31:26;;;;;;;;;;;15.30;99.90;;;;;;4995203;28;878;-53
2021/12/19 03:33:53;;;;;;;;;;;15.30;99.90;;;;;;4998082;28;882;-56
2021/12/19 03:36:19;;;;;;;;;;;15.30;99.90;;;;;;4997668;28;890;-53
2021/12/19 03:38:45;;;;;;;;;;;15.30;99.90;;;;;;4996535;28;1141;-53
2021/12/19 03:41:22;;;;;;;;;;;15.30;99.90;;;;;;4997738;28;1960;-53
2021/12/19 03:43:49;;;;;;;;;;;15.30;99.90;;;;;;4997804;28;905;-53
2021/12/19 03:46:15;;;;;;;;;;;15.30;99.90;;;;;;4997864;28;864;-53
2021/12/19 03:48:43;;;;;;;;;;;15.20;99.90;;;;;;4997722;28;794;-53
2021/12/19 03:51:11;;;;;;;;;;;15.20;99.90;;;;;;4997621;28;893;-53
2021/12/19 03:53:38;;;;;;;;;;;15.20;99.90;;;;;;4997556;28;849;-56
2021/12/19 03:56:05;;;;;;;;;;;15.20;99.90;;;;;;4997823;28;882;-56
2021/12/19 03:58:32;;;;;;;;;;;15.20;99.90;;;;;;4997560;28;881;-56
2021/12/19 04:01:01;;;;;;;;;;;15.10;99.90;;;;;;4979959;28;964;-55
2021/12/19 04:03:28;;;;;;;;;;;15.10;99.90;;;;;;4993818;28;1914;-55
2021/12/19 04:05:54;;;;;;;;;;;15.00;99.90;;;;;;4977261;28;964;-55
2021/12/19 04:08:21;;;;;;;;;;;15.00;99.90;;;;;;4960732;28;2478;-56
2021/12/19 04:10:48;;;;;;;;;;;15.00;99.90;;;;;;4978206;28;879;-56
2021/12/19 04:13:16;;;;;;;;;;;15.00;99.90;;;;;;4977999;28;828;-56
2021/12/19 04:15:43;;;;;;;;;;;15.10;99.90;;;;;;4977771;28;1630;-56
2021/12/19 04:18:11;;;;;;;;;;;15.10;99.90;;;;;;4977361;28;991;-56
2021/12/19 04:20:38;;;;;;;;;;;15.00;99.90;;;;;;4977433;28;838;-55
2021/12/19 04:23:04;;;;;;;;;;;15.00;99.90;;;;;;4977471;28;1914;-53
2021/12/19 04:25:30;;;;;;;;;;;15.00;99.90;;;;;;4977763;28;842;-54
2021/12/19 04:27:56;;;;;;;;;;;15.00;99.90;;;;;;4977751;28;834;-53
2021/12/19 04:30:25;;;;;;;;;;;15.00;99.90;;;;;;4977655;28;870;-53
2021/12/19 04:33:08;;;;;;;;;;;15.00;99.90;;;;;;4972619;28;909;-53
2021/12/19 04:35:36;;;;;;;;;;;15.00;99.90;;;;;;4962594;28;1027;-53
2021/12/19 04:54:47;;;;;;;;;;;14.90;99.90;;;;;;4977125;28;933;-53
2021/12/19 04:57:42;;;;;;;;;;;14.90;99.90;;;;;;4977087;28;1850;-53
2021/12/19 05:00:08;;;;;;;;;;;14.80;99.90;;;;;;4976881;28;1264;-56
2021/12/19 05:05:42;;;;;;;;;;;14.80;99.90;;;;;;4994576;28;1265;-53
2021/12/19 05:16:27;;;;;;;;;;;14.60;99.90;;;;;;4996403;28;814;-53
2021/12/19 05:19:01;;;;;;;;;;;14.60;99.90;;;;;;4996321;28;826;-53
2021/12/19 05:21:28;;;;;;;;;;;14.70;99.90;;;;;;4996748;28;1981;-53
2021/12/19 05:26:23;;;;;;;;;;;14.70;99.90;;;;;;4996595;28;894;-53
2021/12/19 05:28:52;;;;;;;;;;;14.70;99.90;;;;;;4996281;28;826;-53
2021/12/19 05:31:18;;;;;;;;;;;14.70;99.90;;;;;;4996328;28;967;-53
2021/12/19 05:33:46;;;;;;;;;;;14.70;99.90;;;;;;4995822;28;991;-54
2021/12/19 05:47:05;;;;;;;;;;;14.60;99.90;;;;;;4996446;28;859;-53
2021/12/19 05:49:31;;;;;;;;;;;14.60;99.90;;;;;;4996003;28;837;-53
2021/12/19 05:51:57;;;;;;;;;;;14.60;99.90;;;;;;4996056;28;887;-53
2021/12/19 05:54:23;;;;;;;;;;;14.60;99.90;;;;;;4995425;28;907;-53
2021/12/19 05:56:51;;;;;;;;;;;14.60;99.90;;;;;;4995935;28;870;-53
2021/12/19 05:59:18;;;;;;;;;;;14.60;99.90;;;;;;4995563;28;1435;-53
2021/12/19 06:01:46;;;;;;;;;;;14.50;99.90;;;;;;4999656;28;1968;-53
2021/12/19 06:04:12;;;;;;;;;;;14.50;99.90;;;;;;4999211;28;990;-53
2021/12/19 06:06:38;;;;;;;;;;;14.50;99.90;;;;;;4999648;28;1318;-53
2021/12/19 06:09:05;;;;;;;;;;;14.50;99.90;;;;;;4999780;28;892;-53
2021/12/19 06:11:31;;;;;;;;;;;14.50;99.90;;;;;;4999514;28;861;-53
2021/12/19 06:13:57;;;;;;;;;;;14.50;99.90;;;;;;4999579;28;916;-56
2021/12/19 06:16:23;;;;;;;;;;;14.50;99.90;;;;;;4998739;28;1065;-56
2021/12/19 06:18:50;;;;;;;;;;;14.40;99.90;;;;;;4999277;28;944;-56
2021/12/19 06:21:18;;;;;;;;;;;14.30;99.90;;;;;;4966373;28;924;-56
2021/12/19 06:23:45;;;;;;;;;;;14.30;99.90;;;;;;4999228;28;1902;-56
2021/12/19 06:26:12;;;;;;;;;;;14.30;99.90;;;;;;4999315;28;790;-56
2021/12/19 06:28:39;;;;;;;;;;;14.40;99.90;;;;;;4999481;28;865;-56
2021/12/19 06:31:05;;;;;;;;;;;14.40;99.90;;;;;;4999198;28;853;-56
2021/12/19 06:33:31;;;;;;;;;;;14.40;99.90;;;;;;4999208;28;810;-54
2021/12/19 06:35:58;;;;;;;;;;;14.40;99.90;;;;;;4996078;28;869;-56
2021/12/19 06:38:24;;;;;;;;;;;14.40;99.90;;;;;;4995122;28;834;-56
2021/12/19 06:40:51;;;;;;;;;;;14.40;99.90;;;;;;4999011;28;897;-57
2021/12/19 06:43:19;;;;;;;;;;;14.40;99.90;;;;;;4999160;28;1968;-56
2021/12/19 06:45:47;;;;;;;;;;;14.40;99.90;;;;;;4998726;28;948;-56
2021/12/19 06:48:15;;;;;;;;;;;14.40;99.90;;;;;;4998616;28;870;-57
2021/12/19 06:50:41;;;;;;;;;;;14.40;99.90;;;;;;4998700;28;815;-56
2021/12/19 06:53:07;;;;;;;;;;;14.40;99.90;;;;;;4998713;28;876;-56
2021/12/19 06:55:33;;;;;;;;;;;14.40;99.90;;;;;;4998764;28;1278;-56
2021/12/19 06:57:58;;;;;;;;;;;14.30;99.90;;;;;;4999063;28;855;-53
2021/12/19 07:00:25;;;;;;;;;;;14.30;99.90;;;;;;4998562;28;938;-53
2021/12/19 07:02:54;;;;;;;;;;;14.30;99.90;;;;;;4997120;28;1906;-53
2021/12/19 07:05:21;;;;;;;;;;;14.30;99.90;;;;;;4998248;28;1151;-53
2021/12/19 07:07:48;;;;;;;;;;;14.30;99.90;;;;;;4996930;28;922;-53
2021/12/19 07:10:15;;;;;;;;;;;14.20;99.90;;;;;;4998858;28;952;-53
2021/12/19 07:12:41;;;;;;;;;;;14.20;99.90;;;;;;4996787;28;994;-52
2021/12/19 07:15:07;;;;;;;;;;;14.10;99.90;;;;;;4998173;28;873;-54
2021/12/19 07:17:35;;;;;;;;;;;14.10;99.90;;;;;;4998521;28;801;-53
2021/12/19 07:20:04;;;;;;;;;;;14.10;99.90;;;;;;4998050;28;918;-53
2021/12/19 07:22:30;;;;;;;;;;;14.10;99.90;;;;;;4997489;28;1907;-53
2021/12/19 07:24:56;;;;;;;;;;;14.10;99.90;;;;;;4998130;28;873;-53
2021/12/19 07:27:23;;;;;;;;;;;14.10;99.90;;;;;;4997559;28;895;-52
2021/12/19 07:29:55;;;;;;;;;;;14.10;99.90;;;;;;4998162;28;847;-52
2021/12/19 07:32:22;;;;;;;;;;;14.10;99.90;;;;;;5013519;28;944;-52
2021/12/19 07:34:50;;;;;;;;;;;14.20;99.90;;;;;;4997899;28;902;-53
2021/12/19 07:37:20;;;;;;;;;;;14.20;99.90;;;;;;4997863;28;922;-53
2021/12/19 07:40:03;;;;;;;;;;;14.30;99.90;;;;;;4997646;28;1048;-53
2021/12/19 07:42:29;;;;;;;;;;;14.30;99.90;;;;;;4997861;28;1970;-52
2021/12/19 07:44:55;;;;;;;;;;;14.30;99.90;;;;;;4998032;28;803;-52
2021/12/19 07:47:22;;;;;;;;;;;14.30;99.90;;;;;;4997806;28;1095;-52
2021/12/19 07:49:50;;;;;;;;;;;14.30;99.90;;;;;;4996334;28;1371;-56
2021/12/19 07:52:18;;;;;;;;;;;14.40;99.90;;;;;;4997484;28;975;-53
2021/12/19 07:54:45;;;;;;;;;;;14.40;99.90;;;;;;4997715;28;892;-52
2021/12/19 07:57:11;;;;;;;;;;;14.50;99.90;;;;;;4980068;28;1226;-53
2021/12/19 07:59:37;;;;;;;;;;;14.50;99.90;;;;;;4997632;28;829;-53
2021/12/19 08:02:04;;;;;;;;;;;14.60;99.90;;;;;;4997484;28;1914;-53
2021/12/19 08:04:31;;;;;;;;;;;14.70;99.90;;;;;;4997171;28;1047;-52
2021/12/19 08:06:58;;;;;;;;;;;14.70;99.90;;;;;;4997595;28;747;-53
2021/12/19 08:09:36;;;;;;;;;;;14.80;99.90;;;;;;4997266;28;818;-53
2021/12/19 08:12:07;;;;;;;;;;;14.90;99.90;;;;;;4996952;28;889;-53
2021/12/19 08:14:34;;;;;;;;;;;14.90;99.90;;;;;;4997594;28;1016;-53
2021/12/19 08:17:00;;;;;;;;;;;15.00;99.90;;;;;;4997069;28;873;-52
2021/12/19 08:19:26;;;;;;;;;;;15.10;99.90;;;;;;4995707;28;932;-53
2021/12/19 08:21:53;;;;;;;;;;;15.20;99.90;;;;;;4996551;28;1982;-53
2021/12/19 08:24:19;;;;;;;;;;;15.30;99.90;;;;;;4995598;28;988;-53
2021/12/19 08:26:46;;;;;;;;;;;15.30;99.90;;;;;;4997091;28;874;-53
2021/12/19 08:29:12;;;;;;;;;;;15.40;99.90;;;;;;4995972;28;884;-53
2021/12/19 08:31:39;;;;;;;;;;;15.50;99.90;;;;;;4996682;28;1010;-53
2021/12/19 08:34:06;;;;;;;;;;;15.50;99.90;;;;;;4996640;28;893;-53
2021/12/19 08:36:33;;;;;;;;;;;15.60;99.90;;;;;;4996935;28;873;-53
2021/12/19 08:39:00;;;;;;;;;;;15.60;99.90;;;;;;4995771;28;2296;-52
2021/12/19 08:41:26;;;;;;;;;;;15.70;99.90;;;;;;4996953;28;835;-52
2021/12/19 08:43:54;;;;;;;;;;;15.70;99.90;;;;;;4997026;28;1910;-52
2021/12/19 08:46:20;;;;;;;;;;;15.80;99.90;;;;;;4994825;28;1004;-52
2021/12/19 08:48:45;;;;;;;;;;;15.80;99.90;;;;;;4996115;28;1183;-53
2021/12/19 08:51:11;;;;;;;;;;;15.90;99.90;;;;;;4995784;28;849;-52
2021/12/19 08:53:38;;;;;;;;;;;15.90;99.90;;;;;;4996697;28;878;-53
2021/12/19 08:56:05;;;;;;;;;;;15.90;99.90;;;;;;4996469;28;901;-52
2021/12/19 08:58:33;;;;;;;;;;;16.00;99.90;;;;;;4997119;28;939;-52
2021/12/19 09:01:01;;;;;;;;;;;16.00;99.90;;;;;;4994789;28;1132;-53
2021/12/19 09:03:32;;;;;;;;;;;16.10;99.90;;;;;;4995619;28;1914;-53
2021/12/19 09:05:58;;;;;;;;;;;16.10;99.90;;;;;;4994333;28;1199;-56
2021/12/19 09:08:25;;;;;;;;;;;16.10;99.90;;;;;;4996415;28;861;-56
2021/12/19 09:10:51;;;;;;;;;;;16.10;99.90;;;;;;4996685;28;799;-56
2021/12/19 09:13:17;;;;;;;;;;;16.20;99.90;;;;;;4996512;28;869;-56
2021/12/19 09:15:43;;;;;;;;;;;16.20;99.90;;;;;;4994663;28;978;-55
2021/12/19 09:18:11;;;;;;;;;;;16.20;99.90;;;;;;4996498;28;1112;-56
2021/12/19 09:20:38;;;;;;;;;;;16.30;99.90;;;;;;4996302;28;889;-57
2021/12/19 09:23:05;;;;;;;;;;;16.30;99.90;;;;;;4996309;28;1975;-56
2021/12/19 09:25:31;;;;;;;;;;;16.30;99.90;;;;;;4996275;28;802;-56
2021/12/19 09:27:57;;;;;;;;;;;16.40;99.90;;;;;;4996648;28;841;-56
2021/12/19 09:30:25;;;;;;;;;;;16.30;99.90;;;;;;4993539;28;1020;-56
2021/12/19 09:32:51;;;;;;;;;;;16.40;99.90;;;;;;4992819;28;1368;-53
2021/12/19 09:35:18;;;;;;;;;;;16.40;99.90;;;;;;4998033;28;1008;-53
2021/12/19 09:37:44;;;;;;;;;;;16.40;99.90;;;;;;4999782;28;1037;-56
2021/12/19 09:40:17;;;;;;;;;;;16.40;99.90;;;;;;5000070;28;870;-55
2021/12/19 09:42:49;;;;;;;;;;;16.40;99.90;;;;;;4998676;28;1902;-56
2021/12/19 09:45:17;;;;;;;;;;;16.50;99.90;;;;;;5000046;28;1008;-56
2021/12/19 09:47:43;;;;;;;;;;;16.50;99.90;;;;;;4997103;28;1100;-56
2021/12/19 09:50:10;;;;;;;;;;;16.50;99.90;;;;;;4999883;28;858;-56
2021/12/19 09:52:39;;;;;;;;;;;16.50;99.90;;;;;;4998116;28;1009;-56
2021/12/19 09:55:07;;;;;;;;;;;16.60;99.90;;;;;;4999718;28;1187;-56
2021/12/19 09:57:36;;;;;;;;;;;16.60;99.90;;;;;;4993182;28;1016;-56
2021/12/19 10:00:05;;;;;;;;;;;16.60;99.90;;;;;;4998957;28;1283;-56
2021/12/19 10:02:31;;;;;;;;;;;16.60;99.90;;;;;;4995703;28;1906;-56
2021/12/19 10:05:13;;;;;;;;;;;16.70;99.90;;;;;;4982729;28;1179;-56
2021/12/19 10:07:56;;;;;;;;;;;16.70;99.90;;;;;;4977084;28;1322;-56
2021/12/19 10:10:44;;;;;;;;;;;16.90;99.90;;;;;;4960855;28;1093;-53
2021/12/19 10:13:11;;;;;;;;;;;16.90;99.90;;;;;;4980164;28;928;-53
2021/12/19 10:15:38;;;;;;;;;;;17.00;99.90;;;;;;4978834;28;924;-53
2021/12/19 10:18:14;;;;;;;;;;;17.10;99.90;;;;;;4979651;28;1270;-53
2021/12/19 10:20:59;;;;;;;;;;;17.20;99.90;;;;;;4979924;28;870;-52
2021/12/19 10:23:27;;;;;;;;;;;17.20;99.90;;;;;;4979535;28;1979;-52
2021/12/19 10:26:08;;;;;;;;;;;17.20;99.90;;;;;;4980066;28;811;-53
2021/12/19 10:28:53;;;;;;;;;;;17.20;99.90;;;;;;4962378;28;1563;-53
2021/12/19 10:31:20;;;;;;;;;;;17.20;99.90;;;;;;4975699;28;1077;-53
2021/12/19 10:33:47;;;;;;;;;;;17.20;99.90;;;;;;4978248;28;867;-53
2021/12/19 10:36:14;;;;;;;;;;;17.20;99.90;;;;;;4962626;28;975;-53
2021/12/19 10:38:43;;;;;;;;;;;17.20;99.90;;;;;;4976467;28;1189;-53
2021/12/19 10:41:34;;;;;;;;;;;17.30;99.90;;;;;;4979254;28;1117;-53
2021/12/19 10:44:10;;;;;;;;;;;17.30;99.90;;;;;;4979160;28;1907;-53
2021/12/19 10:46:38;;;;;;;;;;;17.30;99.90;;;;;;4957746;28;1156;-53
2021/12/19 10:49:20;;;;;;;;;;;17.30;99.90;;;;;;4979541;28;893;-53
2021/12/19 10:51:48;;;;;;;;;;;17.30;99.90;;;;;;4977897;28;869;-53
2021/12/19 10:54:15;;;;;;;;;;;17.20;99.90;;;;;;4979571;28;1180;-53
2021/12/19 10:56:43;;;;;;;;;;;17.20;99.90;;;;;;4978567;28;1260;-53
2021/12/19 10:59:16;;;;;;;;;;;17.30;99.90;;;;;;4979545;28;799;-53
2021/12/19 11:01:45;;;;;;;;;;;17.40;99.90;;;;;;4979310;28;838;-53
2021/12/19 11:04:30;;;;;;;;;;;17.40;99.90;;;;;;4978674;28;1968;-53
2021/12/19 11:06:58;;;;;;;;;;;17.50;99.90;;;;;;4949764;28;940;-52
2021/12/19 11:09:28;;;;;;;;;;;17.50;99.90;;;;;;4978667;28;959;-53
2021/12/19 11:11:56;;;;;;;;;;;17.50;99.90;;;;;;4979333;28;806;-52
2021/12/19 11:14:26;;;;;;;;;;;17.50;99.90;;;;;;4978855;28;881;-52
2021/12/19 11:16:54;;;;;;;;;;;17.50;99.90;;;;;;4979133;28;971;-53
2021/12/19 11:19:20;;;;;;;;;;;17.60;99.90;;;;;;4978559;28;917;-53
2021/12/19 11:21:47;;;;;;;;;;;17.50;99.90;;;;;;4979018;28;874;-53
2021/12/19 11:24:15;;;;;;;;;;;17.60;99.90;;;;;;4978873;28;1965;-53
2021/12/19 11:26:43;;;;;;;;;;;17.60;99.90;;;;;;4978640;28;885;-53
2021/12/19 11:29:12;;;;;;;;;;;17.60;99.90;;;;;;4979065;28;875;-53
2021/12/19 11:31:41;;;;;;;;;;;17.60;99.90;;;;;;4978973;28;843;-53
2021/12/19 11:34:21;;;;;;;;;;;17.60;99.90;;;;;;4978444;28;889;-53
2021/12/19 11:37:05;;;;;;;;;;;17.60;99.90;;;;;;4978615;28;867;-53
2021/12/19 11:39:52;;;;;;;;;;;17.60;99.90;;;;;;4978591;28;847;-53
2021/12/19 11:42:21;;;;;;;;;;;17.60;99.90;;;;;;4977854;28;1906;-53
2021/12/19 11:45:12;;;;;;;;;;;17.60;99.90;;;;;;4977286;28;1022;-53
2021/12/19 11:47:56;;;;;;;;;;;17.60;99.90;;;;;;4978341;28;1326;-56
2021/12/19 11:50:28;;;;;;;;;;;17.60;99.90;;;;;;4978255;28;929;-56
2021/12/19 11:52:54;;;;;;;;;;;17.70;99.90;;;;;;4978180;28;882;-56
2021/12/19 11:55:26;;;;;;;;;;;17.70;99.90;;;;;;4978088;28;831;-56
2021/12/19 11:58:11;;;;;;;;;;;17.70;99.90;;;;;;4977541;28;953;-56
2021/12/19 12:00:56;;;;;;;;;;;17.70;99.90;;;;;;4978187;28;925;-56
2021/12/19 12:03:23;;;;;;;;;;;17.70;99.90;;;;;;4978131;28;1973;-56
2021/12/19 12:06:08;;;;;;;;;;;17.80;99.90;;;;;;4977949;28;1135;-56
2021/12/19 12:08:34;;;;;;;;;;;17.80;99.90;;;;;;4977102;28;1188;-56
2021/12/19 12:11:01;;;;;;;;;;;17.80;99.90;;;;;;4977443;28;1192;-56
2021/12/19 12:13:45;;;;;;;;;;;17.90;99.90;;;;;;4974307;28;1248;-56
2021/12/19 12:16:38;;;;;;;;;;;17.90;99.90;;;;;;4977406;28;1183;-56
2021/12/19 12:19:11;;;;;;;;;;;18.00;99.90;;;;;;4975155;28;1145;-56
2021/12/19 12:24:06;;;;;;;;;;;18.00;99.90;;;;;;4960961;28;1903;-56
2021/12/19 12:26:43;;;;;;;;;;;18.00;99.90;;;;;;4977595;28;873;-56
2021/12/19 12:29:11;;;;;;;;;;;17.80;99.90;;;;;;4977969;28;961;-56
2021/12/19 12:31:41;;;;;;;;;;;17.80;99.90;;;;;;4960060;28;868;-56
2021/12/19 12:34:08;;;;;;;;;;;17.90;99.90;;;;;;4960040;28;1609;-56
2021/12/19 12:36:34;;;;;;;;;;;17.90;99.90;;;;;;4977534;28;871;-60
2021/12/19 12:39:06;;;;;;;;;;;18.00;99.90;;;;;;4977305;28;782;-55
2021/12/19 12:44:20;;;;;;;;;;;17.70;99.90;;;;;;4973061;28;1898;-55
2021/12/19 12:46:48;;;;;;;;;;;17.60;99.90;;;;;;4976523;28;1075;-56
2021/12/19 12:49:34;;;;;;;;;;;17.50;99.90;;;;;;4973233;28;1402;-55
2021/12/19 12:52:02;;;;;;;;;;;17.50;99.90;;;;;;4975258;28;960;-56
2021/12/19 12:54:35;;;;;;;;;;;17.50;99.90;;;;;;4975701;28;1336;-56
2021/12/19 12:57:02;;;;;;;;;;;17.50;99.90;;;;;;4905082;29;1325;-56
2021/12/19 12:59:35;;;;;;;;;;;17.60;99.90;;;;;;4936824;29;984;-56
2021/12/19 13:04:53;;;;;;;;;;;17.80;99.90;;;;;;4957688;28;1203;-56
2021/12/19 13:07:21;;;;;;;;;;;17.90;99.90;;;;;;4972056;28;1446;-56
2021/12/19 13:10:06;;;;;;;;;;;17.90;99.90;;;;;;4957402;28;1233;-56
2021/12/19 13:12:32;;;;;;;;;;;18.10;99.90;;;;;;4971300;28;1369;-56
2021/12/19 13:15:03;;;;;;;;;;;18.50;99.90;;;;;;4969582;28;1041;-56
2021/12/19 13:17:36;;;;;;;;;;;18.60;99.90;;;;;;4973242;28;996;-56
2021/12/19 13:20:06;;;;;;;;;;;18.70;99.90;;;;;;4972262;28;1404;-56
2021/12/19 13:22:38;;;;;;;;;;;18.60;99.90;;;;;;4971907;28;1906;-56
2021/12/19 13:25:25;;;;;;;;;;;18.50;99.90;;;;;;4974239;28;996;-57
2021/12/19 13:27:51;;;;;;;;;;;18.40;99.90;;;;;;4982372;28;1341;-56
2021/12/19 13:30:36;;;;;;;;;;;18.30;99.90;;;;;;4983238;28;1583;-55
2021/12/19 13:33:05;;;;;;;;;;;18.20;99.90;;;;;;4994221;28;1434;-56
2021/12/19 13:35:50;;;;;;;;;;;18.20;99.90;;;;;;4991500;28;1372;-56
2021/12/19 13:38:20;;;;;;;;;;;18.20;99.90;;;;;;4993441;28;1269;-56
2021/12/19 13:41:06;;;;;;;;;;;18.20;99.90;;;;;;4994566;28;1364;-56
2021/12/19 13:43:33;;;;;;;;;;;18.10;99.90;;;;;;4985285;28;1970;-57
2021/12/19 13:46:00;;;;;;;;;;;18.20;99.90;;;;;;4988280;28;1456;-56
2021/12/19 13:48:32;;;;;;;;;;;18.10;99.90;;;;;;4991843;28;1271;-56
2021/12/19 13:50:58;;;;;;;;;;;18.10;99.90;;;;;;4992249;28;1478;-57
2021/12/19 13:53:25;;;;;;;;;;;18.10;99.90;;;;;;4987283;28;1211;-56
2021/12/19 13:55:56;;;;;;;;;;;18.20;99.90;;;;;;4995569;28;1004;-57
2021/12/19 13:58:26;;;;;;;;;;;18.20;99.90;;;;;;4987787;28;1243;-56
2021/12/19 14:00:53;;;;;;;;;;;18.20;99.90;;;;;;4992086;28;1027;-56
2021/12/19 14:03:35;;;;;;;;;;;18.30;99.90;;;;;;4994661;28;1898;-56
2021/12/19 14:06:01;;;;;;;;;;;18.30;99.90;;;;;;4993639;28;1228;-56
2021/12/19 14:08:29;;;;;;;;;;;18.30;99.90;;;;;;4993576;28;1011;-57
2021/12/19 14:11:00;;;;;;;;;;;18.50;99.90;;;;;;4995414;28;1130;-56
2021/12/19 14:13:33;;;;;;;;;;;18.40;99.90;;;;;;4990047;28;1241;-57
2021/12/19 14:15:59;;;;;;;;;;;18.50;99.90;;;;;;4994274;28;1370;-57
2021/12/19 14:18:26;;;;;;;;;;;18.70;99.90;;;;;;4995533;28;1444;-57
2021/12/19 14:20:52;;;;;;;;;;;18.70;99.90;;;;;;4993312;28;1323;-56
2021/12/19 14:23:19;;;;;;;;;;;18.80;99.90;;;;;;4998183;28;1980;-56
2021/12/19 14:25:45;;;;;;;;;;;18.90;99.90;;;;;;4989628;28;1471;-56
2021/12/19 14:28:32;;;;;;;;;;;19.00;99.90;;;;;;4985908;28;1323;-55
2021/12/19 14:31:00;;;;;;;;;;;19.00;99.90;;;;;;4997233;28;877;-55
2021/12/19 14:33:36;;;;;;;;;;;19.10;99.90;;;;;;4994754;28;1355;-55
2021/12/19 14:36:05;;;;;;;;;;;19.00;99.90;;;;;;4998543;28;894;-56
2021/12/19 14:38:30;;;;;;;;;;;19.00;99.90;;;;;;4998865;28;1475;-56
2021/12/19 14:40:58;;;;;;;;;;;18.90;99.90;;;;;;4993835;28;1033;-55
2021/12/19 14:43:28;;;;;;;;;;;18.90;99.90;;;;;;4995323;28;1987;-54
2021/12/19 14:45:56;;;;;;;;;;;18.90;99.90;;;;;;4998366;28;902;-54
2021/12/19 14:48:30;;;;;;;;;;;18.90;99.90;;;;;;4997937;28;1471;-55
2021/12/19 14:50:58;;;;;;;;;;;18.90;99.90;;;;;;4995931;28;1303;-54
2021/12/19 14:53:31;;;;;;;;;;;18.80;99.90;;;;;;4994129;28;882;-54
2021/12/19 14:55:59;;;;;;;;;;;18.80;99.90;;;;;;4994348;28;1495;-54
2021/12/19 14:58:27;;;;;;;;;;;18.90;99.90;;;;;;4998568;28;1558;-54
2021/12/19 15:00:58;;;;;;;;;;;18.90;99.90;;;;;;4997855;28;989;-54
2021/12/19 15:03:26;;;;;;;;;;;18.90;99.90;;;;;;4997230;28;1906;-56
2021/12/19 15:05:52;;;;;;;;;;;18.90;99.90;;;;;;4978206;28;1227;-56
2021/12/19 15:08:28;;;;;;;;;;;18.80;99.90;;;;;;4977810;28;1661;-54
2021/12/19 15:10:56;;;;;;;;;;;18.80;99.90;;;;;;4978928;28;857;-54
2021/12/19 15:13:25;;;;;;;;;;;18.90;99.90;;;;;;4978192;28;1669;-54
2021/12/19 15:15:54;;;;;;;;;;;18.80;99.90;;;;;;4979026;28;978;-56
2021/12/19 15:18:22;;;;;;;;;;;18.80;99.90;;;;;;4978253;28;1479;-56
2021/12/19 15:20:49;;;;;;;;;;;18.80;99.90;;;;;;4979147;28;1066;-55
2021/12/19 15:23:17;;;;;;;;;;;18.80;99.90;;;;;;4957573;28;1906;-55
2021/12/19 15:25:47;;;;;;;;;;;18.70;99.90;;;;;;4975123;28;1331;-54
2021/12/19 15:28:17;;;;;;;;;;;18.70;99.90;;;;;;4963901;28;1638;-55
2021/12/19 15:30:45;;;;;;;;;;;18.70;99.90;;;;;;4971818;28;1312;-55
2021/12/19 15:33:11;;;;;;;;;;;18.70;99.90;;;;;;4977371;28;1239;-55
2021/12/19 15:35:39;;;;;;;;;;;18.70;99.90;;;;;;4978238;28;932;-55
2021/12/19 15:38:05;;;;;;;;;;;18.70;99.90;;;;;;4977498;28;1200;-56
2021/12/19 15:40:32;;;;;;;;;;;18.60;99.90;;;;;;4977590;28;1110;-56
2021/12/19 15:42:58;;;;;;;;;;;18.60;99.90;;;;;;4978686;28;1907;-56
2021/12/19 15:45:25;;;;;;;;;;;18.70;99.90;;;;;;4977184;28;1185;-57
2021/12/19 15:47:52;;;;;;;;;;;18.80;99.90;;;;;;4978137;28;1037;-56
2021/12/19 15:50:18;;;;;;;;;;;19.60;99.90;;;;;;4979408;28;1454;-56
2021/12/19 15:52:44;;;;;;;;;;;20.50;99.90;;;;;;4965612;28;1717;-56
2021/12/19 15:55:10;;;;;;;;;;;21.10;99.90;;;;;;4976382;28;1665;-56
2021/12/19 15:57:38;;;;;;;;;;;21.40;99.90;;;;;;4977975;28;1326;-57
2021/12/19 16:00:05;;;;;;;;;;;21.60;99.90;;;;;;4978308;28;1015;-57
2021/12/19 16:02:32;;;;;;;;;;;21.80;99.90;;;;;;4977797;28;1000;-56